Ontario International Airport Ontario US
ICAO: KONT
IATA: ONT
Category: Large
Scheduled Services: Yes

Elevation: 944 ft
TransAlt. 18000 ft.

Airport Communications:
SOCAL APP/DEP:119.65
ATIS:124.25
CLNC DEL:118.1
GND:121.9
TWR:120.6

KONT Zoom In..

Runways:

(A) RW 08L length 12197 ft width 150 ft
ILS 109.70 / hdg 76

(B) RW 08R length 10200 ft width 150 ft
---- / hdg 76

(C) RW 26L length 10200 ft width 150 ft
ILS 111.35 / hdg 256

(D) RW 26R length 12197 ft width 150 ft
ILS 109.70 / hdg 256

Location; KONT
Day. 04 / Time. 16.53 Zulu
* Altimeter: 30.23
* Temperature: 13° c. 55.4°f.
* Wind from: 000° Speed 00 kn.
Dewpoint: -13° c.
Visibility: 10 Statute Miles.
Clouds: Few 15000 ft.

KONT 041653Z 00000KT 10SM FEW150 13/M13 A3023 RMK AO2 SLP235 T01331128

Going to: --> -->


Wind - Calm.

 
 
jpsmedia worldairports.se 2020   terms of use